Time;durP1;ratioP1;P1;durP2;ratioP2;P2;SDS_P1;SDS_P2;PMS_P1;PMS_P2;Temp;Humidity;BMP_temperature;BMP_pressure;BME280_temperature;BME280_humidity;BME280_pressure;Samples;Min_cycle;Max_cycle;Signal;HPM_P1;HPM_P2
2023/10/15 00:00:00;;;;;;;4.63;1.73;;;;;;;;;;516890;28;1366;-88
2023/10/15 00:00:18;;;;;;;4.93;1.80;;;;;;;;;;517226;28;1251;-87
2023/10/15 00:00:34;;;;;;;5.10;1.70;;;;;;;;;;516019;28;1363;-87
2023/10/15 00:00:50;;;;;;;4.18;1.42;;;;;;;;;;515598;28;2070;-88
2023/10/15 00:01:05;;;;;;;4.03;1.40;;;;;;;;;;515010;28;1371;-87
2023/10/15 00:01:20;;;;;;;3.75;1.50;;;;;;;;;;511821;28;1278;-88
2023/10/15 00:01:36;;;;;;;4.40;1.63;;;;;;;;;;511737;28;1541;-87
2023/10/15 00:01:52;;;;;;;4.80;1.53;;;;;;;;;;511706;29;1369;-87
2023/10/15 00:02:07;;;;;;;4.85;1.60;;;;;;;;;;511616;29;1445;-87
2023/10/15 00:02:22;;;;;;;6.35;1.70;;;;;;;;;;512482;28;1183;-88
2023/10/15 00:02:42;;;;;;;7.27;1.60;;;;;;;;;;514268;28;1394;-87
2023/10/15 00:02:57;;;;;;;6.55;1.60;;;;;;;;;;515765;28;1288;-87
2023/10/15 00:03:12;;;;;;;5.13;1.60;;;;;;;;;;516492;28;1176;-87
2023/10/15 00:03:28;;;;;;;4.87;1.50;;;;;;;;;;514757;28;1379;-86
2023/10/15 00:03:43;;;;;;;4.97;1.70;;;;;;;;;;512972;28;1415;-86
2023/10/15 00:03:59;;;;;;;4.57;1.63;;;;;;;;;;517741;28;1156;-87
2023/10/15 00:04:14;;;;;;;3.97;1.37;;;;;;;;;;517515;28;1424;-86
2023/10/15 00:04:29;;;;;;;4.03;1.50;;;;;;;;;;515385;28;1319;-87
2023/10/15 00:04:45;;;;;;;5.43;1.70;;;;;;;;;;513793;28;1308;-87
2023/10/15 00:05:01;;;;;;;5.50;1.67;;;;;;;;;;513978;28;1025;-87
2023/10/15 00:05:19;;;;;;;4.57;1.52;;;;;;;;;;513626;28;1480;-87
2023/10/15 00:05:35;;;;;;;4.90;1.40;;;;;;;;;;512413;28;1486;-87
2023/10/15 00:05:50;;;;;;;4.10;1.40;;;;;;;;;;513387;28;1411;-87
2023/10/15 00:06:06;;;;;;;4.55;1.67;;;;;;;;;;513628;28;1332;-87
2023/10/15 00:06:21;;;;;;;6.35;1.67;;;;;;;;;;513537;28;1239;-87
2023/10/15 00:06:37;;;;;;;6.73;1.60;;;;;;;;;;516055;28;1176;-88
2023/10/15 00:06:52;;;;;;;5.53;1.60;;;;;;;;;;513470;28;1215;-87
2023/10/15 00:07:07;;;;;;;5.25;1.45;;;;;;;;;;515953;28;1228;-88
2023/10/15 00:07:23;;;;;;;5.20;1.50;;;;;;;;;;516000;28;1149;-85
2023/10/15 00:07:39;;;;;;;4.90;1.50;;;;;;;;;;514088;28;1081;-87
2023/10/15 00:07:54;;;;;;;5.28;1.67;;;;;;;;;;513975;28;1259;-86
2023/10/15 00:08:12;;;;;;;4.35;1.50;;;;;;;;;;513947;28;910;-87
2023/10/15 00:08:27;;;;;;;3.80;1.38;;;;;;;;;;514733;28;950;-86
2023/10/15 00:08:43;;;;;;;4.13;1.53;;;;;;;;;;516815;28;748;-88
2023/10/15 00:08:59;;;;;;;4.33;1.60;;;;;;;;;;518137;28;1151;-87
2023/10/15 00:09:14;;;;;;;4.40;1.60;;;;;;;;;;517485;28;1877;-86
2023/10/15 00:09:30;;;;;;;4.77;1.57;;;;;;;;;;516009;28;1250;-86
2023/10/15 00:09:46;;;;;;;4.13;1.50;;;;;;;;;;516635;28;815;-87
2023/10/15 00:10:01;;;;;;;4.00;1.60;;;;;;;;;;518154;28;1307;-86
2023/10/15 00:10:22;;;;;;;4.13;1.70;;;;;;;;;;518061;28;733;-89
2023/10/15 00:10:37;;;;;;;4.15;1.70;;;;;;;;;;518030;28;923;-89
2023/10/15 00:10:53;;;;;;;4.57;1.67;;;;;;;;;;514486;28;1341;-87
2023/10/15 00:11:13;;;;;;;4.07;1.60;;;;;;;;;;511916;28;1308;-86
2023/10/15 00:11:28;;;;;;;3.83;1.50;;;;;;;;;;513646;28;1396;-87
2023/10/15 00:11:43;;;;;;;4.68;1.58;;;;;;;;;;513996;28;1501;-87
2023/10/15 00:11:59;;;;;;;4.93;1.53;;;;;;;;;;514105;28;859;-86
2023/10/15 00:12:15;;;;;;;4.60;1.52;;;;;;;;;;513911;28;1353;-86
2023/10/15 00:12:30;;;;;;;4.75;1.60;;;;;;;;;;514113;28;1025;-88
2023/10/15 00:12:50;;;;;;;5.20;1.80;;;;;;;;;;514843;28;1274;-87
2023/10/15 00:13:05;;;;;;;4.68;1.60;;;;;;;;;;513920;28;1369;-87
2023/10/15 00:13:20;;;;;;;4.75;1.48;;;;;;;;;;514947;28;998;-88
2023/10/15 00:13:36;;;;;;;4.37;1.50;;;;;;;;;;514077;28;1284;-87
2023/10/15 00:13:51;;;;;;;4.23;1.50;;;;;;;;;;513955;28;1915;-87
2023/10/15 00:14:06;;;;;;;4.35;1.60;;;;;;;;;;511947;28;1189;-87
2023/10/15 00:14:22;;;;;;;4.03;1.60;;;;;;;;;;513164;28;1472;-88
2023/10/15 00:14:37;;;;;;;3.63;1.50;;;;;;;;;;514937;28;831;-86
2023/10/15 00:14:52;;;;;;;4.13;1.50;;;;;;;;;;514797;28;812;-87
2023/10/15 00:15:30;;;;;;;4.80;1.77;;;;;;;;;;515938;28;795;-87
2023/10/15 00:15:45;;;;;;;3.92;1.60;;;;;;;;;;517799;28;1125;-87
2023/10/15 00:16:00;;;;;;;4.18;1.50;;;;;;;;;;518100;28;931;-87
2023/10/15 00:16:17;;;;;;;4.60;1.40;;;;;;;;;;516061;28;1239;-87
2023/10/15 00:16:33;;;;;;;4.22;1.35;;;;;;;;;;516137;28;859;-87
2023/10/15 00:16:48;;;;;;;4.50;1.45;;;;;;;;;;516079;28;1270;-87
2023/10/15 00:17:05;;;;;;;5.07;1.60;;;;;;;;;;516072;28;1262;-86
2023/10/15 00:17:20;;;;;;;6.10;1.70;;;;;;;;;;513922;28;1305;-86
2023/10/15 00:17:36;;;;;;;6.87;1.63;;;;;;;;;;513915;28;1272;-87
2023/10/15 00:17:59;;;;;;;5.40;1.50;;;;;;;;;;515205;28;1154;-87
2023/10/15 00:18:14;;;;;;;4.20;1.42;;;;;;;;;;517620;28;1416;-87
2023/10/15 00:18:29;;;;;;;4.13;1.50;;;;;;;;;;517999;28;890;-86
2023/10/15 00:18:45;;;;;;;4.07;1.50;;;;;;;;;;516090;28;1279;-87
2023/10/15 00:19:09;;;;;;;3.35;1.40;;;;;;;;;;514633;28;1706;-86
2023/10/15 00:19:24;;;;;;;5.15;1.48;;;;;;;;;;512112;29;866;-86
2023/10/15 00:19:40;;;;;;;5.17;1.63;;;;;;;;;;511968;29;1064;-86
2023/10/15 00:19:55;;;;;;;5.00;1.90;;;;;;;;;;513851;28;1195;-87
2023/10/15 00:20:13;;;;;;;4.53;1.73;;;;;;;;;;515300;28;1281;-86
2023/10/15 00:20:35;;;;;;;4.80;1.45;;;;;;;;;;513859;28;1236;-87
2023/10/15 00:20:53;;;;;;;5.03;1.55;;;;;;;;;;513404;28;1329;-86
2023/10/15 00:21:12;;;;;;;4.85;1.70;;;;;;;;;;515186;28;1187;-87
2023/10/15 00:21:27;;;;;;;4.55;1.65;;;;;;;;;;516128;28;914;-87
2023/10/15 00:21:43;;;;;;;4.37;1.60;;;;;;;;;;516726;28;1049;-87
2023/10/15 00:21:58;;;;;;;4.72;1.60;;;;;;;;;;515494;28;1318;-87
2023/10/15 00:22:13;;;;;;;4.70;1.70;;;;;;;;;;513499;28;1450;-87
2023/10/15 00:22:29;;;;;;;4.63;1.70;;;;;;;;;;514194;28;1194;-87
2023/10/15 00:22:45;;;;;;;4.82;1.58;;;;;;;;;;516816;28;867;-86
2023/10/15 00:23:04;;;;;;;3.67;1.30;;;;;;;;;;516041;28;1267;-86
2023/10/15 00:23:20;;;;;;;3.53;1.40;;;;;;;;;;515917;28;1280;-87
2023/10/15 00:23:36;;;;;;;4.13;1.50;;;;;;;;;;516033;28;1706;-86
2023/10/15 00:23:52;;;;;;;4.90;1.50;;;;;;;;;;516584;28;923;-87
2023/10/15 00:24:10;;;;;;;5.77;1.60;;;;;;;;;;518077;28;846;-86
2023/10/15 00:24:25;;;;;;;5.35;1.50;;;;;;;;;;516090;28;846;-86
2023/10/15 00:24:41;;;;;;;5.03;1.40;;;;;;;;;;516018;28;918;-86
2023/10/15 00:24:56;;;;;;;5.50;1.63;;;;;;;;;;517953;28;1274;-87
2023/10/15 00:25:13;;;;;;;6.83;1.60;;;;;;;;;;518080;28;890;-87
2023/10/15 00:25:34;;;;;;;5.50;1.40;;;;;;;;;;517962;28;1329;-85
2023/10/15 00:25:49;;;;;;;4.75;1.42;;;;;;;;;;518352;28;1307;-87
2023/10/15 00:26:05;;;;;;;4.75;1.45;;;;;;;;;;518484;28;1363;-86
2023/10/15 00:26:21;;;;;;;5.23;1.30;;;;;;;;;;518067;28;1160;-86
2023/10/15 00:26:38;;;;;;;5.30;1.20;;;;;;;;;;516132;28;1331;-86
2023/10/15 00:26:54;;;;;;;4.53;1.20;;;;;;;;;;516149;28;918;-87
2023/10/15 00:27:09;;;;;;;5.72;1.42;;;;;;;;;;515990;28;1160;-86
2023/10/15 00:27:24;;;;;;;6.50;1.50;;;;;;;;;;515754;28;1724;-86
2023/10/15 00:27:43;;;;;;;5.07;1.40;;;;;;;;;;514115;28;792;-86
2023/10/15 00:27:58;;;;;;;3.88;1.40;;;;;;;;;;516168;28;906;-86
2023/10/15 00:28:15;;;;;;;4.30;1.40;;;;;;;;;;514849;28;1189;-87
2023/10/15 00:28:31;;;;;;;3.92;1.27;;;;;;;;;;516095;28;1411;-87
2023/10/15 00:28:46;;;;;;;4.90;1.40;;;;;;;;;;516057;28;1362;-88
2023/10/15 00:29:01;;;;;;;5.07;1.40;;;;;;;;;;514146;28;1316;-87
2023/10/15 00:29:17;;;;;;;4.63;1.37;;;;;;;;;;514907;28;882;-87
2023/10/15 00:29:32;;;;;;;4.65;1.60;;;;;;;;;;516219;28;816;-86
2023/10/15 00:29:48;;;;;;;4.47;1.60;;;;;;;;;;515950;28;1170;-87
2023/10/15 00:30:06;;;;;;;4.85;1.40;;;;;;;;;;516493;28;811;-87
2023/10/15 00:30:22;;;;;;;3.83;1.20;;;;;;;;;;517603;28;855;-86
2023/10/15 00:30:39;;;;;;;3.75;1.30;;;;;;;;;;516764;28;1425;-86
2023/10/15 00:30:54;;;;;;;5.32;1.38;;;;;;;;;;520731;28;1223;-88
2023/10/15 00:31:13;;;;;;;4.75;1.27;;;;;;;;;;519864;28;971;-86
2023/10/15 00:31:28;;;;;;;4.55;1.42;;;;;;;;;;520124;28;1291;-87
2023/10/15 00:31:44;;;;;;;4.45;1.40;;;;;;;;;;517742;28;1335;-86
2023/10/15 00:31:59;;;;;;;3.80;1.20;;;;;;;;;;516077;28;1168;-86
2023/10/15 00:32:14;;;;;;;4.30;1.23;;;;;;;;;;515715;28;1714;-85
2023/10/15 00:32:30;;;;;;;4.05;1.20;;;;;;;;;;514037;28;1180;-86
2023/10/15 00:32:46;;;;;;;4.10;1.20;;;;;;;;;;515912;28;1437;-86
2023/10/15 00:33:11;;;;;;;5.63;1.50;;;;;;;;;;513987;28;1407;-87
2023/10/15 00:33:27;;;;;;;3.72;1.10;;;;;;;;;;513899;28;1462;-86
2023/10/15 00:33:46;;;;;;;4.10;1.20;;;;;;;;;;514231;28;1273;-89
2023/10/15 00:34:03;;;;;;;4.57;1.40;;;;;;;;;;515814;28;1903;-86
2023/10/15 00:34:20;;;;;;;4.22;1.27;;;;;;;;;;517837;28;1391;-87
2023/10/15 00:34:35;;;;;;;4.55;1.25;;;;;;;;;;518047;28;1535;-87
2023/10/15 00:34:50;;;;;;;4.60;1.38;;;;;;;;;;514827;28;1274;-87
2023/10/15 00:35:06;;;;;;;4.57;1.40;;;;;;;;;;512017;29;1157;-86
2023/10/15 00:35:22;;;;;;;4.20;1.40;;;;;;;;;;513767;28;1417;-89
2023/10/15 00:35:37;;;;;;;4.63;1.40;;;;;;;;;;514073;28;1182;-86
2023/10/15 00:35:54;;;;;;;4.43;1.35;;;;;;;;;;515472;28;1205;-87
2023/10/15 00:36:13;;;;;;;3.20;1.27;;;;;;;;;;515902;28;887;-86
2023/10/15 00:36:28;;;;;;;4.13;1.30;;;;;;;;;;515332;28;1237;-86
2023/10/15 00:36:44;;;;;;;5.90;1.33;;;;;;;;;;515971;28;1303;-86
2023/10/15 00:37:01;;;;;;;5.33;1.33;;;;;;;;;;515973;28;1301;-86
2023/10/15 00:37:16;;;;;;;4.72;1.38;;;;;;;;;;516092;28;929;-86
2023/10/15 00:37:35;;;;;;;4.53;1.30;;;;;;;;;;513925;28;1236;-86
2023/10/15 00:37:54;;;;;;;4.68;1.35;;;;;;;;;;517322;28;1607;-87
2023/10/15 00:38:19;;;;;;;3.72;1.23;;;;;;;;;;517826;28;1268;-87
2023/10/15 00:38:36;;;;;;;4.80;1.30;;;;;;;;;;516045;28;1409;-87
2023/10/15 00:38:52;;;;;;;4.55;1.40;;;;;;;;;;514543;28;1403;-87
2023/10/15 00:39:19;;;;;;;3.60;1.27;;;;;;;;;;511778;28;1328;-88
2023/10/15 00:39:41;;;;;;;4.57;1.40;;;;;;;;;;512071;29;926;-88
2023/10/15 00:39:59;;;;;;;5.90;1.38;;;;;;;;;;514188;28;1246;-87
2023/10/15 00:40:17;;;;;;;5.20;1.33;;;;;;;;;;516093;28;913;-87
2023/10/15 00:40:37;;;;;;;4.78;1.30;;;;;;;;;;515980;28;1244;-86
2023/10/15 00:41:01;;;;;;;4.78;1.40;;;;;;;;;;518405;28;859;-87
2023/10/15 00:41:16;;;;;;;5.07;1.33;;;;;;;;;;516380;28;866;-86
2023/10/15 00:41:31;;;;;;;4.93;1.30;;;;;;;;;;518571;28;1152;-87
2023/10/15 00:41:50;;;;;;;5.57;1.40;;;;;;;;;;518442;28;1138;-86
2023/10/15 00:42:05;;;;;;;6.15;1.40;;;;;;;;;;516409;28;1520;-86
2023/10/15 00:42:22;;;;;;;5.43;1.40;;;;;;;;;;516624;28;1290;-87
2023/10/15 00:42:39;;;;;;;4.32;1.30;;;;;;;;;;518412;28;1295;-86
2023/10/15 00:42:57;;;;;;;4.22;1.30;;;;;;;;;;518312;28;1267;-85
2023/10/15 00:43:17;;;;;;;6.30;1.50;;;;;;;;;;516202;28;1256;-86
2023/10/15 00:43:32;;;;;;;5.30;1.50;;;;;;;;;;515600;28;875;-86
2023/10/15 00:43:59;;;;;;;5.15;1.42;;;;;;;;;;513683;28;839;-86
2023/10/15 00:44:15;;;;;;;4.38;1.50;;;;;;;;;;515180;28;870;-86
2023/10/15 00:44:31;;;;;;;2.97;1.27;;;;;;;;;;516396;28;937;-87
2023/10/15 00:44:47;;;;;;;3.50;1.20;;;;;;;;;;516900;28;1059;-86
2023/10/15 00:45:03;;;;;;;5.00;1.30;;;;;;;;;;516722;28;1267;-86
2023/10/15 00:45:20;;;;;;;5.87;1.53;;;;;;;;;;518383;28;819;-87
2023/10/15 00:45:39;;;;;;;4.85;1.42;;;;;;;;;;518508;28;969;-86
2023/10/15 00:45:55;;;;;;;3.97;1.20;;;;;;;;;;518262;28;1413;-87
2023/10/15 00:46:13;;;;;;;4.43;1.50;;;;;;;;;;516161;28;1247;-86
2023/10/15 00:46:32;;;;;;;4.20;1.33;;;;;;;;;;516356;28;1457;-86
2023/10/15 00:46:54;;;;;;;4.07;1.27;;;;;;;;;;516271;28;961;-86
2023/10/15 00:47:15;;;;;;;4.28;1.27;;;;;;;;;;516344;28;929;-86
2023/10/15 00:47:34;;;;;;;5.35;1.30;;;;;;;;;;516371;28;878;-87
2023/10/15 00:48:08;;;;;;;4.47;1.27;;;;;;;;;;516374;28;1077;-86
2023/10/15 00:48:33;;;;;;;4.40;1.35;;;;;;;;;;519434;28;1374;-85
2023/10/15 00:48:49;;;;;;;4.03;1.40;;;;;;;;;;520300;28;1260;-85
2023/10/15 00:49:13;;;;;;;3.80;1.40;;;;;;;;;;520296;28;1158;-86
2023/10/15 00:49:30;;;;;;;3.90;1.30;;;;;;;;;;520438;28;1377;-86
2023/10/15 00:49:45;;;;;;;5.22;1.50;;;;;;;;;;520028;28;1669;-85
2023/10/15 00:50:07;;;;;;;6.03;1.70;;;;;;;;;;520358;28;815;-85
2023/10/15 00:50:22;;;;;;;4.72;1.30;;;;;;;;;;518300;28;858;-87
2023/10/15 00:50:41;;;;;;;4.67;1.20;;;;;;;;;;519823;28;1190;-86
2023/10/15 00:50:56;;;;;;;5.22;1.40;;;;;;;;;;518156;28;1223;-86
2023/10/15 00:51:13;;;;;;;4.72;1.33;;;;;;;;;;516256;28;1332;-84
2023/10/15 00:51:28;;;;;;;4.63;1.35;;;;;;;;;;516042;28;1252;-75
2023/10/15 00:51:45;;;;;;;4.67;1.30;;;;;;;;;;516069;28;1180;-75
2023/10/15 00:52:04;;;;;;;3.83;1.20;;;;;;;;;;516308;28;898;-75
2023/10/15 00:52:20;;;;;;;5.60;1.33;;;;;;;;;;518049;28;1286;-75
2023/10/15 00:52:42;;;;;;;5.80;1.40;;;;;;;;;;517943;28;1357;-75
2023/10/15 00:53:06;;;;;;;4.70;1.20;;;;;;;;;;517862;28;1346;-75
2023/10/15 00:53:23;;;;;;;4.40;1.33;;;;;;;;;;517158;28;1246;-75
2023/10/15 00:53:50;;;;;;;4.60;1.35;;;;;;;;;;516051;28;863;-75
2023/10/15 00:54:10;;;;;;;4.18;1.33;;;;;;;;;;513946;28;1492;-75
2023/10/15 00:54:26;;;;;;;3.80;1.30;;;;;;;;;;513976;28;985;-75
2023/10/15 00:54:42;;;;;;;3.90;1.30;;;;;;;;;;513826;28;1006;-75
2023/10/15 00:54:57;;;;;;;4.10;1.30;;;;;;;;;;516077;28;1512;-75
2023/10/15 00:55:17;;;;;;;4.63;1.45;;;;;;;;;;513730;28;1355;-75
2023/10/15 00:55:37;;;;;;;4.53;1.40;;;;;;;;;;514259;28;1531;-75
2023/10/15 00:56:03;;;;;;;5.95;1.40;;;;;;;;;;515997;28;1233;-75
2023/10/15 00:56:22;;;;;;;4.45;1.35;;;;;;;;;;515594;28;1286;-75
2023/10/15 00:56:38;;;;;;;4.35;1.30;;;;;;;;;;515961;28;1422;-75
2023/10/15 00:56:54;;;;;;;4.78;1.40;;;;;;;;;;512135;28;1395;-75
2023/10/15 00:57:25;;;;;;;5.22;1.40;;;;;;;;;;511248;29;1237;-75
2023/10/15 00:57:43;;;;;;;4.25;1.30;;;;;;;;;;511999;29;907;-75
2023/10/15 00:58:02;;;;;;;5.05;1.50;;;;;;;;;;512011;29;970;-75
2023/10/15 00:58:22;;;;;;;4.78;1.60;;;;;;;;;;513468;28;1404;-75
2023/10/15 00:58:39;;;;;;;4.10;1.40;;;;;;;;;;513318;28;1775;-75
2023/10/15 00:59:31;;;;;;;4.45;1.50;;;;;;;;;;518667;28;1117;-75
2023/10/15 00:59:48;;;;;;;5.20;1.38;;;;;;;;;;516429;28;1329;-75
2023/10/15 01:00:08;;;;;;;5.20;1.42;;;;;;;;;;517955;28;1381;-75
2023/10/15 01:00:37;;;;;;;5.97;1.65;;;;;;;;;;520031;28;917;-75
2023/10/15 01:00:53;;;;;;;3.60;1.20;;;;;;;;;;519868;28;1069;-75
2023/10/15 01:01:34;;;;;;;4.22;1.27;;;;;;;;;;520064;28;764;-75
2023/10/15 01:02:28;;;;;;;4.25;1.20;;;;;;;;;;516107;28;964;-75
2023/10/15 01:02:44;;;;;;;4.57;1.27;;;;;;;;;;514224;28;1053;-75
2023/10/15 01:03:09;;;;;;;3.50;1.15;;;;;;;;;;515991;28;871;-75
2023/10/15 01:03:31;;;;;;;4.28;1.27;;;;;;;;;;515883;28;981;-74
2023/10/15 01:03:56;;;;;;;3.45;1.10;;;;;;;;;;515027;28;1573;-74
2023/10/15 01:04:15;;;;;;;4.28;1.27;;;;;;;;;;513152;28;899;-75
2023/10/15 01:04:35;;;;;;;4.07;1.30;;;;;;;;;;509968;29;1357;-75
2023/10/15 01:04:51;;;;;;;2.80;1.10;;;;;;;;;;510964;28;1476;-75
2023/10/15 01:05:07;;;;;;;3.22;1.13;;;;;;;;;;511903;29;1236;-75
2023/10/15 01:05:25;;;;;;;3.97;1.42;;;;;;;;;;511995;29;958;-75
2023/10/15 01:05:53;;;;;;;4.25;1.27;;;;;;;;;;510920;29;1300;-75
2023/10/15 01:06:08;;;;;;;4.22;1.20;;;;;;;;;;514926;28;2048;-75
2023/10/15 01:06:38;;;;;;;4.45;1.30;;;;;;;;;;516899;28;867;-75
2023/10/15 01:06:59;;;;;;;5.55;1.58;;;;;;;;;;519484;28;1061;-75
2023/10/15 01:07:27;;;;;;;4.82;1.35;;;;;;;;;;519926;28;991;-75
2023/10/15 01:07:47;;;;;;;4.88;1.40;;;;;;;;;;519672;28;1124;-75
2023/10/15 01:08:05;;;;;;;4.22;1.48;;;;;;;;;;519983;28;972;-75
2023/10/15 01:08:31;;;;;;;3.80;1.30;;;;;;;;;;517988;28;1386;-75
2023/10/15 01:08:47;;;;;;;4.72;1.40;;;;;;;;;;517910;28;1088;-75
2023/10/15 01:09:09;;;;;;;4.00;1.33;;;;;;;;;;517997;28;1222;-75
2023/10/15 01:09:27;;;;;;;4.28;1.40;;;;;;;;;;515922;28;1447;-75
2023/10/15 01:09:43;;;;;;;4.05;1.40;;;;;;;;;;514030;28;1077;-75
2023/10/15 01:09:59;;;;;;;3.83;1.23;;;;;;;;;;515939;28;1362;-75
2023/10/15 01:10:39;;;;;;;4.95;1.10;;;;;;;;;;516996;28;1432;-75
2023/10/15 01:11:11;;;;;;;3.35;1.40;;;;;;;;;;517708;28;1061;-75
2023/10/15 01:11:29;;;;;;;3.60;1.10;;;;;;;;;;520067;28;937;-75
2023/10/15 01:11:55;;;;;;;4.07;1.10;;;;;;;;;;519696;28;1358;-75
2023/10/15 01:12:24;;;;;;;3.67;1.40;;;;;;;;;;519912;28;1490;-75
2023/10/15 01:12:39;;;;;;;4.57;1.30;;;;;;;;;;520058;28;850;-75
2023/10/15 01:12:56;;;;;;;5.25;1.50;;;;;;;;;;517769;28;1234;-75
2023/10/15 01:13:21;;;;;;;3.83;1.40;;;;;;;;;;515938;28;1247;-75
2023/10/15 01:13:39;;;;;;;3.78;1.23;;;;;;;;;;515059;28;1430;-75
2023/10/15 01:13:55;;;;;;;6.18;1.50;;;;;;;;;;515617;28;1964;-75
2023/10/15 01:14:11;;;;;;;5.47;1.50;;;;;;;;;;515917;28;1225;-75
2023/10/15 01:14:31;;;;;;;4.90;1.50;;;;;;;;;;514962;28;887;-75
2023/10/15 01:14:47;;;;;;;4.60;1.40;;;;;;;;;;513902;28;1046;-76
2023/10/15 01:15:03;;;;;;;6.10;1.57;;;;;;;;;;512433;28;1187;-75
2023/10/15 01:15:18;;;;;;;5.97;1.60;;;;;;;;;;513930;28;1236;-75
2023/10/15 01:15:36;;;;;;;4.90;1.50;;;;;;;;;;516645;28;832;-75
2023/10/15 01:15:53;;;;;;;4.53;1.40;;;;;;;;;;514315;28;1300;-75
2023/10/15 01:16:13;;;;;;;3.72;1.33;;;;;;;;;;513147;28;1252;-75
2023/10/15 01:16:36;;;;;;;3.90;1.42;;;;;;;;;;512204;28;923;-75
2023/10/15 01:16:51;;;;;;;4.40;1.40;;;;;;;;;;516224;28;1420;-75
2023/10/15 01:17:07;;;;;;;4.90;1.40;;;;;;;;;;517936;28;851;-75
2023/10/15 01:17:26;;;;;;;5.10;1.37;;;;;;;;;;517558;28;1585;-75
2023/10/15 01:17:41;;;;;;;5.10;1.30;;;;;;;;;;517945;28;1756;-75
2023/10/15 01:18:06;;;;;;;5.88;1.42;;;;;;;;;;518090;28;1805;-75
2023/10/15 01:18:22;;;;;;;4.57;1.40;;;;;;;;;;520067;28;882;-75
2023/10/15 01:18:37;;;;;;;4.47;1.40;;;;;;;;;;520056;28;807;-75
2023/10/15 01:19:05;;;;;;;5.15;1.42;;;;;;;;;;519879;28;1297;-75
2023/10/15 01:19:31;;;;;;;5.80;1.42;;;;;;;;;;519683;28;1424;-75
2023/10/15 01:19:46;;;;;;;4.60;1.50;;;;;;;;;;519875;28;1557;-75
2023/10/15 01:20:05;;;;;;;5.25;1.48;;;;;;;;;;519917;28;827;-75
2023/10/15 01:20:29;;;;;;;4.90;1.38;;;;;;;;;;520013;28;874;-75
2023/10/15 01:20:44;;;;;;;4.15;1.20;;;;;;;;;;519643;28;1379;-76
2023/10/15 01:21:01;;;;;;;3.73;1.27;;;;;;;;;;519569;28;1048;-75
2023/10/15 01:21:16;;;;;;;4.20;1.40;;;;;;;;;;516567;28;1262;-75
2023/10/15 01:21:32;;;;;;;4.25;1.40;;;;;;;;;;516084;28;887;-75
2023/10/15 01:21:53;;;;;;;4.45;1.48;;;;;;;;;;516594;28;1092;-76
2023/10/15 01:22:10;;;;;;;5.63;1.55;;;;;;;;;;518805;28;898;-75
2023/10/15 01:22:27;;;;;;;3.42;1.25;;;;;;;;;;519981;28;922;-75
2023/10/15 01:22:43;;;;;;;3.38;1.27;;;;;;;;;;516839;28;1868;-75
2023/10/15 01:22:58;;;;;;;3.70;1.30;;;;;;;;;;514415;28;1963;-75
2023/10/15 01:23:28;;;;;;;4.43;1.40;;;;;;;;;;516614;28;1844;-75
2023/10/15 01:23:59;;;;;;;4.40;1.40;;;;;;;;;;517982;28;1304;-75
2023/10/15 01:24:18;;;;;;;5.22;1.50;;;;;;;;;;516421;28;1507;-75
2023/10/15 01:24:36;;;;;;;6.25;1.40;;;;;;;;;;516450;28;1535;-75
2023/10/15 01:24:55;;;;;;;6.13;1.45;;;;;;;;;;517655;28;1685;-75
2023/10/15 01:25:24;;;;;;;5.95;1.50;;;;;;;;;;515712;28;1997;-75
2023/10/15 01:25:48;;;;;;;4.50;1.45;;;;;;;;;;515736;28;1788;-75
2023/10/15 01:26:09;;;;;;;4.35;1.30;;;;;;;;;;517383;28;1344;-75
2023/10/15 01:26:25;;;;;;;5.55;1.50;;;;;;;;;;515522;28;1263;-75
2023/10/15 01:26:40;;;;;;;4.75;1.33;;;;;;;;;;516001;28;847;-75
2023/10/15 01:27:28;;;;;;;3.97;1.42;;;;;;;;;;514735;28;850;-75
2023/10/15 01:27:45;;;;;;;5.47;1.50;;;;;;;;;;513833;28;1101;-75
2023/10/15 01:28:00;;;;;;;5.68;1.42;;;;;;;;;;513809;28;1322;-75
2023/10/15 01:28:16;;;;;;;3.88;1.20;;;;;;;;;;514668;28;923;-75
2023/10/15 01:28:37;;;;;;;3.50;1.10;;;;;;;;;;513547;28;1299;-75
2023/10/15 01:28:52;;;;;;;4.75;1.40;;;;;;;;;;516417;28;1166;-75
2023/10/15 01:29:08;;;;;;;5.27;1.53;;;;;;;;;;515939;28;1487;-75
2023/10/15 01:29:23;;;;;;;4.97;1.43;;;;;;;;;;515992;28;937;-75
2023/10/15 01:29:44;;;;;;;3.92;1.27;;;;;;;;;;516051;28;882;-75
2023/10/15 01:30:00;;;;;;;3.22;1.10;;;;;;;;;;515728;28;1315;-75
2023/10/15 01:30:17;;;;;;;3.20;1.10;;;;;;;;;;513958;28;1262;-75
2023/10/15 01:30:36;;;;;;;4.32;1.40;;;;;;;;;;515751;28;938;-75
2023/10/15 01:30:51;;;;;;;4.07;1.23;;;;;;;;;;514566;28;1089;-75
2023/10/15 01:31:07;;;;;;;4.03;1.40;;;;;;;;;;515064;28;1283;-75
2023/10/15 01:31:24;;;;;;;4.67;1.50;;;;;;;;;;513909;28;1309;-75
2023/10/15 01:31:51;;;;;;;5.97;1.42;;;;;;;;;;513880;28;1236;-75
2023/10/15 01:32:10;;;;;;;4.72;1.48;;;;;;;;;;517043;28;1602;-75
2023/10/15 01:32:26;;;;;;;4.40;1.30;;;;;;;;;;519919;28;926;-75
2023/10/15 01:32:44;;;;;;;3.07;1.30;;;;;;;;;;517444;28;2018;-75
2023/10/15 01:33:06;;;;;;;3.17;1.27;;;;;;;;;;515928;28;902;-75
2023/10/15 01:33:21;;;;;;;4.55;1.30;;;;;;;;;;517835;28;957;-75
2023/10/15 01:33:49;;;;;;;5.88;1.50;;;;;;;;;;518535;28;893;-75
2023/10/15 01:34:09;;;;;;;5.05;1.50;;;;;;;;;;518085;28;846;-75
2023/10/15 01:34:25;;;;;;;5.68;1.60;;;;;;;;;;520508;28;1113;-75
2023/10/15 01:34:44;;;;;;;5.40;1.52;;;;;;;;;;518476;28;828;-75
2023/10/15 01:35:00;;;;;;;6.22;1.60;;;;;;;;;;519908;28;965;-75
2023/10/15 01:35:19;;;;;;;5.68;1.52;;;;;;;;;;519951;28;894;-75
2023/10/15 01:35:38;;;;;;;5.03;1.42;;;;;;;;;;519904;28;1323;-75
2023/10/15 01:35:54;;;;;;;4.00;1.30;;;;;;;;;;517704;28;1283;-75
2023/10/15 01:36:09;;;;;;;3.70;1.30;;;;;;;;;;517516;28;1424;-75
2023/10/15 01:36:28;;;;;;;4.55;1.33;;;;;;;;;;515784;28;1181;-75
2023/10/15 01:36:47;;;;;;;5.20;1.45;;;;;;;;;;515728;28;1042;-75
2023/10/15 01:37:02;;;;;;;4.25;1.60;;;;;;;;;;515987;28;1403;-75
2023/10/15 01:37:37;;;;;;;4.20;1.30;;;;;;;;;;515881;28;1851;-75
2023/10/15 01:38:03;;;;;;;3.17;1.20;;;;;;;;;;517644;28;1636;-75
2023/10/15 01:38:26;;;;;;;4.32;1.40;;;;;;;;;;518814;28;890;-75
2023/10/15 01:38:44;;;;;;;5.72;1.60;;;;;;;;;;519924;28;1550;-75
2023/10/15 01:39:09;;;;;;;5.38;1.60;;;;;;;;;;518210;28;1301;-75
2023/10/15 01:39:38;;;;;;;5.88;1.60;;;;;;;;;;518088;28;1036;-75
2023/10/15 01:40:24;;;;;;;5.65;1.50;;;;;;;;;;519715;28;1044;-75
2023/10/15 01:40:40;;;;;;;4.05;1.40;;;;;;;;;;519803;28;940;-75
2023/10/15 01:40:56;;;;;;;3.50;1.30;;;;;;;;;;517493;28;1780;-75
2023/10/15 01:41:15;;;;;;;3.13;1.20;;;;;;;;;;515025;28;1389;-75
2023/10/15 01:41:31;;;;;;;3.22;1.20;;;;;;;;;;513904;28;1264;-75
2023/10/15 01:41:50;;;;;;;4.40;1.40;;;;;;;;;;514470;28;1467;-75
2023/10/15 01:42:06;;;;;;;5.63;1.67;;;;;;;;;;515829;28;1291;-75
2023/10/15 01:42:47;;;;;;;5.40;1.60;;;;;;;;;;513751;28;2653;-75
2023/10/15 01:43:08;;;;;;;4.95;1.48;;;;;;;;;;514669;28;1578;-75
2023/10/15 01:43:24;;;;;;;5.22;1.50;;;;;;;;;;517082;28;1065;-75
2023/10/15 01:43:40;;;;;;;3.70;1.30;;;;;;;;;;515848;28;919;-75
2023/10/15 01:44:01;;;;;;;3.70;1.20;;;;;;;;;;517759;28;1323;-75
2023/10/15 01:44:19;;;;;;;4.25;1.38;;;;;;;;;;515824;28;1414;-75
2023/10/15 01:44:47;;;;;;;4.85;1.40;;;;;;;;;;515732;28;1259;-75
2023/10/15 01:45:13;;;;;;;6.32;1.50;;;;;;;;;;513633;28;914;-75
2023/10/15 01:45:32;;;;;;;4.53;1.35;;;;;;;;;;513829;28;957;-75
2023/10/15 01:45:47;;;;;;;3.72;1.40;;;;;;;;;;512392;28;1381;-75
2023/10/15 01:46:10;;;;;;;5.10;1.50;;;;;;;;;;513450;28;803;-75
2023/10/15 01:47:10;;;;;;;4.30;1.40;;;;;;;;;;516129;28;2338;-75
2023/10/15 01:47:18;;;;;;;4.23;1.43;;;;;;;;;;513398;28;1114;-75
2023/10/15 01:47:36;;;;;;;5.03;1.50;;;;;;;;;;517499;28;1212;-75
2023/10/15 01:48:16;;;;;;;4.60;1.70;;;;;;;;;;520677;28;1385;-75
2023/10/15 01:48:31;;;;;;;5.07;1.40;;;;;;;;;;519813;28;890;-75
2023/10/15 01:48:47;;;;;;;5.70;1.40;;;;;;;;;;517073;28;1238;-75
2023/10/15 01:49:06;;;;;;;5.60;1.47;;;;;;;;;;513713;28;1723;-75
2023/10/15 01:49:34;;;;;;;6.00;1.55;;;;;;;;;;511652;29;1345;-75
2023/10/15 01:49:53;;;;;;;6.05;1.70;;;;;;;;;;513810;28;1081;-75
2023/10/15 01:50:09;;;;;;;5.30;1.25;;;;;;;;;;513641;28;1311;-75
2023/10/15 01:50:24;;;;;;;5.30;1.33;;;;;;;;;;514726;28;1147;-75
2023/10/15 01:50:45;;;;;;;4.93;1.50;;;;;;;;;;516663;28;858;-76
2023/10/15 01:51:06;;;;;;;5.53;1.60;;;;;;;;;;517500;28;956;-75
2023/10/15 01:51:22;;;;;;;4.75;1.38;;;;;;;;;;515960;28;972;-75
2023/10/15 01:51:40;;;;;;;6.77;1.40;;;;;;;;;;517597;28;1301;-75
2023/10/15 01:51:55;;;;;;;7.95;1.50;;;;;;;;;;517610;28;1157;-75
2023/10/15 01:52:22;;;;;;;5.15;1.42;;;;;;;;;;519707;28;898;-75
2023/10/15 01:52:41;;;;;;;3.88;1.40;;;;;;;;;;519925;28;922;-75
2023/10/15 01:53:01;;;;;;;3.67;1.30;;;;;;;;;;519913;28;1446;-75
2023/10/15 01:53:17;;;;;;;3.60;1.23;;;;;;;;;;517773;28;1248;-75
2023/10/15 01:53:37;;;;;;;4.82;1.45;;;;;;;;;;517900;28;946;-75
2023/10/15 01:53:56;;;;;;;5.32;1.40;;;;;;;;;;515611;28;1907;-75
2023/10/15 01:54:14;;;;;;;3.92;1.30;;;;;;;;;;515825;28;934;-75
2023/10/15 01:54:31;;;;;;;5.68;1.60;;;;;;;;;;515906;28;895;-75
2023/10/15 01:54:46;;;;;;;6.30;1.65;;;;;;;;;;513820;28;1301;-75
2023/10/15 01:55:04;;;;;;;4.63;1.50;;;;;;;;;;511767;29;1174;-75
2023/10/15 01:55:19;;;;;;;5.05;1.50;;;;;;;;;;513886;28;882;-75
2023/10/15 01:55:52;;;;;;;6.45;1.60;;;;;;;;;;511756;29;1451;-75
2023/10/15 01:56:16;;;;;;;3.63;1.23;;;;;;;;;;513356;28;899;-75
2023/10/15 01:56:36;;;;;;;4.68;1.50;;;;;;;;;;512938;28;883;-75
2023/10/15 01:56:55;;;;;;;5.07;1.38;;;;;;;;;;515508;28;1773;-75
2023/10/15 01:57:15;;;;;;;5.40;1.50;;;;;;;;;;517722;28;890;-75
2023/10/15 01:57:31;;;;;;;4.53;1.42;;;;;;;;;;516904;28;867;-75